Terminal Aerodrome Forecast
Issued by NWS Norman, OK

Home | Current Version | Previous Version | Text Only | Print | Product List | Glossary On
Versions: 1 2 3 4 5 6 7 8 9 10 11 12 13
000
FTUS44 KOUN 272335
TAFOKC
TAF
KOKC 272335Z 2800/2824 06006KT P6SM FEW250
     FM281000 09008KT P6SM OVC015
      TEMPO 2821/2824 4SM -TSRA BR OVC008CB=

USA.gov is the U.S. government's official web portal to all federal, state and local government web resources and services.